createdAt,value
2019-04-16T00:00:42.477Z,13.40
2019-04-16T00:01:38.996Z,15.00
2019-04-16T00:02:37.990Z,13.80
2019-04-16T00:03:37.986Z,15.10
2019-04-16T00:04:37.966Z,15.00
2019-04-16T00:05:37.955Z,13.80
2019-04-16T00:06:37.959Z,16.60
2019-04-16T00:07:37.955Z,16.10
2019-04-16T00:08:37.920Z,15.30
2019-04-16T00:09:37.910Z,13.10
2019-04-16T00:10:37.905Z,15.60
2019-04-16T00:11:37.917Z,14.80
2019-04-16T00:12:37.899Z,16.90
2019-04-16T00:13:37.871Z,15.80
2019-04-16T00:14:37.864Z,14.30
2019-04-16T00:15:41.031Z,15.40
2019-04-16T00:16:37.868Z,14.40
2019-04-16T00:17:37.826Z,16.80
2019-04-16T00:18:37.819Z,13.80
2019-04-16T00:19:37.814Z,14.70
2019-04-16T00:20:38.126Z,13.70
2019-04-16T00:21:38.472Z,13.90
2019-04-16T00:22:37.775Z,15.40
2019-04-16T00:23:37.765Z,15.10
2019-04-16T00:24:37.752Z,16.90
2019-04-16T00:25:37.744Z,13.40
2019-04-16T00:26:37.777Z,15.10
2019-04-16T00:27:37.726Z,14.10
2019-04-16T00:28:37.724Z,13.90
2019-04-16T00:29:39.612Z,13.80
2019-04-16T00:30:37.693Z,15.50
2019-04-16T00:31:37.808Z,14.10
2019-04-16T00:32:38.808Z,16.40
2019-04-16T00:33:39.437Z,14.60
2019-04-16T00:34:37.647Z,15.40
2019-04-16T00:35:37.654Z,14.70
2019-04-16T00:36:37.631Z,14.40
2019-04-16T00:37:37.640Z,15.70
2019-04-16T00:38:40.942Z,14.50
2019-04-16T00:39:37.596Z,16.50
2019-04-16T00:40:37.588Z,15.80
2019-04-16T00:41:37.578Z,15.60
2019-04-16T00:42:37.585Z,16.40
2019-04-16T00:43:37.552Z,13.80
2019-04-16T00:44:37.552Z,15.10
2019-04-16T00:45:37.535Z,14.10
2019-04-16T00:46:37.521Z,15.40
2019-04-16T00:47:37.557Z,14.60
2019-04-16T00:48:37.509Z,14.00
2019-04-16T00:49:38.089Z,14.80
2019-04-16T00:50:37.481Z,14.80
2019-04-16T00:51:37.470Z,15.10
2019-04-16T00:52:37.706Z,16.50
2019-04-16T00:53:39.078Z,16.10
2019-04-16T00:54:39.281Z,14.50
2019-04-16T00:55:37.426Z,14.60
2019-04-16T00:56:37.416Z,14.60
2019-04-16T00:57:37.409Z,13.00
2019-04-16T00:58:37.420Z,15.00
2019-04-16T00:59:37.390Z,15.30
2019-04-16T01:00:37.377Z,13.80
2019-04-16T01:01:37.363Z,15.00
2019-04-16T01:02:37.364Z,13.70
2019-04-16T01:03:37.370Z,14.30
2019-04-16T01:04:37.341Z,15.50
2019-04-16T01:05:37.327Z,14.60
2019-04-16T01:06:37.980Z,13.50
2019-04-16T01:07:37.301Z,14.00
2019-04-16T01:08:37.291Z,14.90
2019-04-16T01:09:37.300Z,14.90
2019-04-16T01:10:37.268Z,17.00
2019-04-16T01:11:37.268Z,14.60
2019-04-16T01:12:37.247Z,15.40
2019-04-16T01:13:37.237Z,14.70
2019-04-16T01:14:37.249Z,13.80
2019-04-16T01:15:37.223Z,15.00
2019-04-16T01:16:37.209Z,15.40
2019-04-16T01:17:37.197Z,16.40
2019-04-16T01:18:38.838Z,15.40
2019-04-16T01:19:38.278Z,14.20
2019-04-16T01:20:37.166Z,15.60
2019-04-16T01:21:37.169Z,15.60
2019-04-16T01:22:37.144Z,14.30
2019-04-16T01:23:37.134Z,14.50
2019-04-16T01:24:37.142Z,14.10
2019-04-16T01:25:37.116Z,15.30
2019-04-16T01:26:37.102Z,14.80
2019-04-16T01:27:37.093Z,16.40
2019-04-16T01:28:37.080Z,14.20
2019-04-16T01:29:37.088Z,13.80
2019-04-16T01:30:37.214Z,15.40
2019-04-16T01:31:38.767Z,15.50
2019-04-16T01:32:37.038Z,14.90
2019-04-16T01:33:46.743Z,14.90
2019-04-16T01:34:37.039Z,14.00
2019-04-16T01:35:44.538Z,15.70
2019-04-16T01:36:37.009Z,14.80
2019-04-16T01:37:36.984Z,14.10
2019-04-16T01:38:36.983Z,14.20
2019-04-16T01:39:36.984Z,15.50
2019-04-16T01:40:36.954Z,15.50
2019-04-16T01:41:36.943Z,14.20
2019-04-16T01:42:36.944Z,15.10
2019-04-16T01:43:36.919Z,16.10
2019-04-16T01:44:36.909Z,15.60
2019-04-16T01:45:36.916Z,14.10
2019-04-16T01:46:36.888Z,14.70
2019-04-16T01:47:37.334Z,17.60
2019-04-16T01:48:38.971Z,15.60
2019-04-16T01:49:39.364Z,14.40
2019-04-16T01:50:37.862Z,15.20
2019-04-16T01:51:37.910Z,15.00
2019-04-16T01:52:36.822Z,16.50
2019-04-16T01:53:36.811Z,18.10
2019-04-16T01:54:36.799Z,13.80
2019-04-16T01:55:36.809Z,16.90
2019-04-16T01:56:36.788Z,15.80
2019-04-16T01:57:36.768Z,14.60
2019-04-16T01:58:36.773Z,15.50
2019-04-16T01:59:36.773Z,15.20
2019-04-16T02:00:39.226Z,15.30
2019-04-16T02:01:36.742Z,15.90
2019-04-16T02:02:36.759Z,15.60
2019-04-16T02:03:36.718Z,14.30
2019-04-16T02:04:36.752Z,16.20
2019-04-16T02:05:36.722Z,15.50
2019-04-16T02:06:36.678Z,16.70
2019-04-16T02:07:44.192Z,16.30
2019-04-16T02:08:36.662Z,16.90
2019-04-16T02:09:36.641Z,13.90
2019-04-16T02:10:38.320Z,16.30
2019-04-16T02:11:38.838Z,15.90
2019-04-16T02:12:36.610Z,14.60
2019-04-16T02:13:36.599Z,16.70
2019-04-16T02:14:36.596Z,16.40
2019-04-16T02:15:36.576Z,14.40
2019-04-16T02:16:36.604Z,15.80
2019-04-16T02:17:36.582Z,14.10
2019-04-16T02:18:36.546Z,17.20
2019-04-16T02:19:36.547Z,15.90
2019-04-16T02:20:39.341Z,15.40
2019-04-16T02:21:39.038Z,15.60
2019-04-16T02:22:36.505Z,16.20
2019-04-16T02:23:36.502Z,15.90
2019-04-16T02:24:36.486Z,17.10
2019-04-16T02:25:36.473Z,16.90
2019-04-16T02:26:36.484Z,15.90
2019-04-16T02:27:36.450Z,15.30
2019-04-16T02:28:36.453Z,14.80
2019-04-16T02:29:36.433Z,16.20
2019-04-16T02:30:39.428Z,14.70
2019-04-16T02:31:36.411Z,16.20
2019-04-16T02:32:36.429Z,16.40
2019-04-16T02:33:36.388Z,15.80
2019-04-16T02:34:36.378Z,17.60
2019-04-16T02:35:36.367Z,14.90
2019-04-16T02:36:36.399Z,15.30
2019-04-16T02:37:37.554Z,16.70
2019-04-16T02:38:36.334Z,16.90
2019-04-16T02:39:47.761Z,17.80
2019-04-16T02:40:37.314Z,14.50
2019-04-16T02:41:36.309Z,15.50
2019-04-16T02:42:36.315Z,16.70
2019-04-16T02:43:40.919Z,14.30
2019-04-16T02:44:36.270Z,16.00
2019-04-16T02:45:36.263Z,15.30
2019-04-16T02:46:36.257Z,16.50
2019-04-16T02:47:40.744Z,16.10
2019-04-16T02:48:37.225Z,16.40
2019-04-16T02:49:36.226Z,15.00
2019-04-16T02:50:36.214Z,16.20
2019-04-16T02:51:39.566Z,16.00
2019-04-16T02:52:36.208Z,15.20
2019-04-16T02:53:36.173Z,18.20
2019-04-16T02:54:36.173Z,16.10
2019-04-16T02:55:42.869Z,19.60
2019-04-16T02:56:37.143Z,14.70
2019-04-16T02:57:36.130Z,16.80
2019-04-16T02:58:36.136Z,14.40
2019-04-16T02:59:36.119Z,17.30
2019-04-16T03:00:36.097Z,15.20
2019-04-16T03:01:36.087Z,16.10
2019-04-16T03:02:36.076Z,15.40
2019-04-16T03:03:36.107Z,16.30
2019-04-16T03:04:36.065Z,16.20
2019-04-16T03:05:36.043Z,15.50
2019-04-16T03:06:36.035Z,16.10
2019-04-16T03:07:36.021Z,15.10
2019-04-16T03:08:36.844Z,17.90
2019-04-16T03:09:39.795Z,16.20
2019-04-16T03:10:35.991Z,16.80
2019-04-16T03:11:35.977Z,17.20
2019-04-16T03:12:35.966Z,16.00
2019-04-16T03:13:35.965Z,14.70
2019-04-16T03:14:35.967Z,16.00
2019-04-16T03:15:35.935Z,15.30
2019-04-16T03:16:37.935Z,18.80
2019-04-16T03:17:35.920Z,15.20
2019-04-16T03:18:35.902Z,16.20
2019-04-16T03:19:38.771Z,14.90
2019-04-16T03:20:35.882Z,16.20
2019-04-16T03:21:35.869Z,16.20
2019-04-16T03:22:35.868Z,17.20
2019-04-16T03:23:37.592Z,15.40
2019-04-16T03:24:37.558Z,17.00
2019-04-16T03:25:35.827Z,18.70
2019-04-16T03:26:35.826Z,15.40
2019-04-16T03:27:35.805Z,16.30
2019-04-16T03:28:35.794Z,16.30
2019-04-16T03:29:35.784Z,15.50
2019-04-16T03:30:42.192Z,16.40
2019-04-16T03:31:36.772Z,16.70
2019-04-16T03:32:36.278Z,15.90
2019-04-16T03:33:35.741Z,16.60
2019-04-16T03:34:35.753Z,16.60
2019-04-16T03:35:35.735Z,17.00
2019-04-16T03:36:35.709Z,15.80
2019-04-16T03:37:35.694Z,15.60
2019-04-16T03:38:37.364Z,15.70
2019-04-16T03:39:35.697Z,17.00
2019-04-16T03:40:35.676Z,15.80
2019-04-16T03:41:35.656Z,16.20
2019-04-16T03:42:35.642Z,17.00
2019-04-16T03:43:35.631Z,16.80
2019-04-16T03:44:37.291Z,15.10
2019-04-16T03:45:37.567Z,16.20
2019-04-16T03:46:35.603Z,16.50
2019-04-16T03:47:35.592Z,16.90
2019-04-16T03:48:43.115Z,17.20
2019-04-16T03:49:35.619Z,16.10
2019-04-16T03:50:35.554Z,15.70
2019-04-16T03:51:36.595Z,16.00
2019-04-16T03:52:37.490Z,16.10
2019-04-16T03:53:35.524Z,18.50
2019-04-16T03:54:35.513Z,18.10
2019-04-16T03:55:35.537Z,20.30
2019-04-16T03:56:35.491Z,17.80
2019-04-16T03:57:35.480Z,18.90
2019-04-16T03:58:38.306Z,17.50
2019-04-16T03:59:35.462Z,17.00
2019-04-16T04:00:35.481Z,15.80
2019-04-16T04:01:35.444Z,18.60
2019-04-16T04:02:35.426Z,17.00
2019-04-16T04:03:35.416Z,19.50
2019-04-16T04:04:35.416Z,18.80
2019-04-16T04:05:35.824Z,18.60
2019-04-16T04:06:36.489Z,17.40
2019-04-16T04:07:35.383Z,17.90
2019-04-16T04:08:35.364Z,17.30
2019-04-16T04:09:35.428Z,18.30
2019-04-16T04:10:37.198Z,17.70
2019-04-16T04:11:35.354Z,19.00
2019-04-16T04:12:35.320Z,17.90
2019-04-16T04:13:35.321Z,17.60
2019-04-16T04:14:35.297Z,18.20
2019-04-16T04:15:35.287Z,17.40
2019-04-16T04:16:35.302Z,19.20
2019-04-16T04:17:35.681Z,15.60
2019-04-16T04:18:35.272Z,18.30
2019-04-16T04:19:35.301Z,18.30
2019-04-16T04:20:35.240Z,17.70
2019-04-16T04:21:35.223Z,17.60
2019-04-16T04:22:35.240Z,17.20
2019-04-16T04:23:35.201Z,19.00
2019-04-16T04:24:35.191Z,18.80
2019-04-16T04:25:36.365Z,19.10
2019-04-16T04:26:35.168Z,16.90
2019-04-16T04:27:35.220Z,17.70
2019-04-16T04:28:35.147Z,17.70
2019-04-16T04:29:35.135Z,18.90
2019-04-16T04:30:35.124Z,17.60
2019-04-16T04:31:35.128Z,17.80
2019-04-16T04:32:36.212Z,18.40
2019-04-16T04:33:40.842Z,18.00
2019-04-16T04:34:36.084Z,19.90
2019-04-16T04:35:35.070Z,17.20
2019-04-16T04:36:35.069Z,21.50
2019-04-16T04:37:35.060Z,22.30
2019-04-16T04:38:37.353Z,19.40
2019-04-16T04:39:35.042Z,18.40
2019-04-16T04:40:44.375Z,17.20
2019-04-16T04:41:36.006Z,16.60
2019-04-16T04:42:34.996Z,18.50
2019-04-16T04:43:35.006Z,20.40
2019-04-16T04:44:36.920Z,18.30
2019-04-16T04:45:37.687Z,19.30
2019-04-16T04:46:35.951Z,18.10
2019-04-16T04:47:34.942Z,17.40
2019-04-16T04:48:34.955Z,18.10
2019-04-16T04:49:34.934Z,19.40
2019-04-16T04:50:35.441Z,18.90
2019-04-16T04:51:36.407Z,18.00
2019-04-16T04:52:35.888Z,16.70
2019-04-16T04:53:34.878Z,17.80
2019-04-16T04:54:34.896Z,16.40
2019-04-16T04:55:34.863Z,20.90
2019-04-16T04:56:34.845Z,18.80
2019-04-16T04:57:34.836Z,17.80
2019-04-16T04:58:34.948Z,16.00
2019-04-16T04:59:36.717Z,18.40
2019-04-16T05:00:37.423Z,20.10
2019-04-16T05:01:35.792Z,17.30
2019-04-16T05:02:34.791Z,18.50
2019-04-16T05:03:34.771Z,19.00
2019-04-16T05:04:34.786Z,18.40
2019-04-16T05:05:34.759Z,18.80
2019-04-16T05:06:34.749Z,18.80
2019-04-16T05:07:34.737Z,17.60
2019-04-16T05:08:34.725Z,18.00
2019-04-16T05:09:36.421Z,20.60
2019-04-16T05:10:36.792Z,18.80
2019-04-16T05:11:35.696Z,19.60
2019-04-16T05:12:34.685Z,17.20
2019-04-16T05:13:34.666Z,19.60
2019-04-16T05:14:34.701Z,17.60
2019-04-16T05:15:34.651Z,18.20
2019-04-16T05:16:35.141Z,19.90
2019-04-16T05:17:35.504Z,21.00
2019-04-16T05:18:34.615Z,21.80
2019-04-16T05:19:34.620Z,20.80
2019-04-16T05:20:34.613Z,18.90
2019-04-16T05:21:34.578Z,19.30
2019-04-16T05:22:34.579Z,20.90
2019-04-16T05:23:37.560Z,22.70
2019-04-16T05:24:37.500Z,18.60
2019-04-16T05:25:34.578Z,19.00
2019-04-16T05:26:36.459Z,19.10
2019-04-16T05:27:34.514Z,17.00
2019-04-16T05:28:34.510Z,19.70
2019-04-16T05:29:34.495Z,20.70
2019-04-16T05:30:34.513Z,18.60
2019-04-16T05:31:34.513Z,16.80
2019-04-16T05:32:34.470Z,18.90
2019-04-16T05:33:37.208Z,19.60
2019-04-16T05:34:37.109Z,19.40
2019-04-16T05:35:34.476Z,18.60
2019-04-16T05:36:34.421Z,18.80
2019-04-16T05:37:34.429Z,19.80
2019-04-16T05:38:34.402Z,20.20
2019-04-16T05:39:34.391Z,19.30
2019-04-16T05:40:35.320Z,19.00
2019-04-16T05:41:34.390Z,18.80
2019-04-16T05:42:34.370Z,19.30
2019-04-16T05:43:34.348Z,19.30
2019-04-16T05:44:34.336Z,26.20
2019-04-16T05:45:37.050Z,21.90
2019-04-16T05:46:34.346Z,22.20
2019-04-16T05:47:34.355Z,19.80
2019-04-16T05:48:34.292Z,20.20
2019-04-16T05:49:34.281Z,21.30
2019-04-16T05:50:34.282Z,21.60
2019-04-16T05:51:34.287Z,21.20
2019-04-16T05:52:35.887Z,20.50
2019-04-16T05:53:34.250Z,20.70
2019-04-16T05:54:34.228Z,22.50
2019-04-16T05:55:34.253Z,21.30
2019-04-16T05:56:34.241Z,20.30
2019-04-16T05:57:34.206Z,19.80
2019-04-16T05:58:34.198Z,20.40
2019-04-16T05:59:34.558Z,20.80
2019-04-16T06:00:34.176Z,20.40
2019-04-16T06:01:34.195Z,21.90
2019-04-16T06:02:34.168Z,18.20
2019-04-16T06:03:34.140Z,19.50
2019-04-16T06:04:34.127Z,19.10
2019-04-16T06:05:34.121Z,19.30
2019-04-16T06:06:34.129Z,20.50
2019-04-16T06:07:37.728Z,18.90
2019-04-16T06:08:34.086Z,23.90
2019-04-16T06:09:34.073Z,20.30
2019-04-16T06:10:34.060Z,20.70
2019-04-16T06:11:36.550Z,20.60
2019-04-16T06:12:34.083Z,20.00
2019-04-16T06:13:34.041Z,19.30
2019-04-16T06:14:34.023Z,20.70
2019-04-16T06:15:35.869Z,16.50
2019-04-16T06:16:34.004Z,20.40
2019-04-16T06:17:34.007Z,21.60
2019-04-16T06:18:37.037Z,19.70
2019-04-16T06:19:33.978Z,20.30
2019-04-16T06:20:33.953Z,22.80
2019-04-16T06:21:33.949Z,21.00
2019-04-16T06:22:33.963Z,18.70
2019-04-16T06:23:33.938Z,19.30
2019-04-16T06:24:35.757Z,19.00
2019-04-16T06:25:33.906Z,21.70
2019-04-16T06:26:33.898Z,19.40
2019-04-16T06:27:33.882Z,20.20
2019-04-16T06:28:33.902Z,21.10
2019-04-16T06:29:33.863Z,20.40
2019-04-16T06:30:34.146Z,18.80
2019-04-16T06:31:36.258Z,19.00
2019-04-16T06:32:34.828Z,22.30
2019-04-16T06:33:33.882Z,20.70
2019-04-16T06:34:33.809Z,19.20
2019-04-16T06:35:43.089Z,18.90
2019-04-16T06:36:34.790Z,20.00
2019-04-16T06:37:33.816Z,18.30
2019-04-16T06:38:33.773Z,20.50
2019-04-16T06:39:33.779Z,15.90
2019-04-16T06:40:33.753Z,19.00
2019-04-16T06:41:41.556Z,19.20
2019-04-16T06:42:34.757Z,19.60
2019-04-16T06:43:33.722Z,18.50
2019-04-16T06:44:35.051Z,19.60
2019-04-16T06:45:37.168Z,19.50
2019-04-16T06:46:33.680Z,16.40
2019-04-16T06:47:33.685Z,18.10
2019-04-16T06:48:33.681Z,17.30
2019-04-16T06:49:34.714Z,17.70
2019-04-16T06:50:39.524Z,15.20
2019-04-16T06:51:34.633Z,16.10
2019-04-16T06:52:33.629Z,20.10
2019-04-16T06:53:33.624Z,16.50
2019-04-16T06:54:33.655Z,18.30
2019-04-16T06:55:36.078Z,17.70
2019-04-16T06:56:33.588Z,21.30
2019-04-16T06:57:33.570Z,18.60
2019-04-16T06:58:49.848Z,16.50
2019-04-16T06:59:34.581Z,17.10
2019-04-16T07:00:35.061Z,18.20
2019-04-16T07:01:36.791Z,16.10
2019-04-16T07:02:37.267Z,18.60
2019-04-16T07:03:33.509Z,17.00
2019-04-16T07:04:33.494Z,21.70
2019-04-16T07:05:33.501Z,16.00
2019-04-16T07:06:36.281Z,21.30
2019-04-16T07:07:40.057Z,16.30
2019-04-16T07:08:38.516Z,15.60
2019-04-16T07:09:41.309Z,16.00
2019-04-16T07:10:44.321Z,17.60
2019-04-16T07:11:34.422Z,16.10
2019-04-16T07:12:37.994Z,17.70
2019-04-16T07:13:34.401Z,16.70
2019-04-16T07:14:36.095Z,17.50
2019-04-16T07:15:33.405Z,14.70
2019-04-16T07:16:33.376Z,16.70
2019-04-16T07:17:34.445Z,16.70
2019-04-16T07:18:35.599Z,16.10
2019-04-16T07:19:34.343Z,16.20
2019-04-16T07:20:33.355Z,18.70
2019-04-16T07:21:33.330Z,19.40
2019-04-16T07:22:33.311Z,20.50
2019-04-16T07:23:33.338Z,16.20
2019-04-16T07:24:36.580Z,16.10
2019-04-16T07:25:39.583Z,17.50
2019-04-16T07:26:38.129Z,19.00
2019-04-16T07:27:37.774Z,18.10
2019-04-16T07:28:34.243Z,18.30
2019-04-16T07:29:33.672Z,19.60
2019-04-16T07:30:38.402Z,14.90
2019-04-16T07:31:34.926Z,19.70
2019-04-16T07:32:33.201Z,17.20
2019-04-16T07:33:33.189Z,17.40
2019-04-16T07:34:33.311Z,18.30
2019-04-16T07:35:33.171Z,16.50
2019-04-16T07:36:33.192Z,17.70
2019-04-16T07:37:33.848Z,17.60
2019-04-16T07:38:35.121Z,18.50
2019-04-16T07:39:36.917Z,16.90
2019-04-16T07:40:33.119Z,18.50
2019-04-16T07:41:33.140Z,16.80
2019-04-16T07:42:33.108Z,17.60
2019-04-16T07:43:33.089Z,17.70
2019-04-16T07:44:33.070Z,18.30
2019-04-16T07:45:33.066Z,17.50
2019-04-16T07:46:33.095Z,17.80
2019-04-16T07:47:33.036Z,18.00
2019-04-16T07:48:33.119Z,18.60
2019-04-16T07:49:33.017Z,17.00
2019-04-16T07:50:33.319Z,19.50
2019-04-16T07:51:35.793Z,17.20
2019-04-16T07:52:32.991Z,17.20
2019-04-16T07:53:32.975Z,19.70
2019-04-16T07:54:32.965Z,19.10
2019-04-16T07:55:32.952Z,18.60
2019-04-16T07:56:32.943Z,16.90
2019-04-16T07:57:32.984Z,18.40
2019-04-16T07:58:32.933Z,17.70
2019-04-16T07:59:33.072Z,19.10
2019-04-16T08:00:32.906Z,18.40
2019-04-16T08:01:32.908Z,18.70
2019-04-16T08:02:32.913Z,18.80
2019-04-16T08:03:32.870Z,17.90
2019-04-16T08:04:35.727Z,18.70
2019-04-16T08:05:32.855Z,22.20
2019-04-16T08:06:32.837Z,18.10
2019-04-16T08:07:32.857Z,20.70
2019-04-16T08:08:32.826Z,18.90
2019-04-16T08:09:33.778Z,21.40
2019-04-16T08:10:32.801Z,20.70
2019-04-16T08:11:32.796Z,18.50
2019-04-16T08:12:32.789Z,16.50
2019-04-16T08:13:33.589Z,17.30
2019-04-16T08:14:32.755Z,17.90
2019-04-16T08:15:32.746Z,17.90
2019-04-16T08:16:46.355Z,18.60
2019-04-16T08:17:33.726Z,20.50
2019-04-16T08:18:32.773Z,19.50
2019-04-16T08:19:37.287Z,22.00
2019-04-16T08:20:32.696Z,19.20
2019-04-16T08:21:32.676Z,21.70
2019-04-16T08:22:32.711Z,18.70
2019-04-16T08:23:32.692Z,20.90
2019-04-16T08:24:32.649Z,21.80
2019-04-16T08:25:34.203Z,19.60
2019-04-16T08:26:32.624Z,23.60
2019-04-16T08:27:32.626Z,19.80
2019-04-16T08:28:32.634Z,18.30
2019-04-16T08:29:32.592Z,19.90
2019-04-16T08:30:38.967Z,19.10
2019-04-16T08:31:33.575Z,23.40
2019-04-16T08:32:32.605Z,18.30
2019-04-16T08:33:32.556Z,19.80
2019-04-16T08:34:32.570Z,19.70
2019-04-16T08:35:32.532Z,20.30
2019-04-16T08:36:32.519Z,20.00
2019-04-16T08:37:32.514Z,21.20
2019-04-16T08:38:34.823Z,20.20
2019-04-16T08:39:32.489Z,23.40
2019-04-16T08:40:32.497Z,21.50
2019-04-16T08:41:40.091Z,18.00
2019-04-16T08:42:43.918Z,20.90
2019-04-16T08:43:33.676Z,20.10
2019-04-16T08:44:35.262Z,20.60
2019-04-16T08:45:32.423Z,20.30
2019-04-16T08:46:32.413Z,23.80
2019-04-16T08:47:32.401Z,19.60
2019-04-16T08:48:32.403Z,19.20
2019-04-16T08:49:32.419Z,19.20
2019-04-16T08:50:32.391Z,19.80
2019-04-16T08:51:36.958Z,22.00
2019-04-16T08:52:33.347Z,20.60
2019-04-16T08:53:35.438Z,20.90
2019-04-16T08:54:32.396Z,19.40
2019-04-16T08:55:32.320Z,18.10
2019-04-16T08:56:32.306Z,21.30
2019-04-16T08:57:32.883Z,22.10
2019-04-16T08:58:32.296Z,19.70
2019-04-16T08:59:32.306Z,20.90
2019-04-16T09:00:32.262Z,21.30
2019-04-16T09:01:32.252Z,21.90
2019-04-16T09:02:32.246Z,21.10
2019-04-16T09:03:32.255Z,22.60
2019-04-16T09:04:34.552Z,24.60
2019-04-16T09:05:32.235Z,24.30
2019-04-16T09:06:32.201Z,20.90
2019-04-16T09:07:32.187Z,21.70
2019-04-16T09:08:32.179Z,21.50
2019-04-16T09:09:32.169Z,22.10
2019-04-16T09:10:32.179Z,20.30
2019-04-16T09:11:35.067Z,22.60
2019-04-16T09:12:32.202Z,20.00
2019-04-16T09:13:32.132Z,22.50
2019-04-16T09:14:32.126Z,21.40
2019-04-16T09:15:32.122Z,22.00
2019-04-16T09:16:32.094Z,22.30
2019-04-16T09:17:32.106Z,21.30
2019-04-16T09:18:32.087Z,22.70
2019-04-16T09:19:32.061Z,22.70
2019-04-16T09:20:34.702Z,24.00
2019-04-16T09:21:33.043Z,21.70
2019-04-16T09:22:32.027Z,25.90
2019-04-16T09:23:32.137Z,21.10
2019-04-16T09:24:32.011Z,23.00
2019-04-16T09:25:32.028Z,24.00
2019-04-16T09:26:31.989Z,24.00
2019-04-16T09:27:34.197Z,26.80
2019-04-16T09:28:32.164Z,25.30
2019-04-16T09:29:31.962Z,21.70
2019-04-16T09:30:32.107Z,22.90
2019-04-16T09:31:31.933Z,22.00
2019-04-16T09:32:31.932Z,22.80
2019-04-16T09:33:33.481Z,21.50
2019-04-16T09:34:31.898Z,24.40
2019-04-16T09:35:31.912Z,21.80
2019-04-16T09:36:32.019Z,21.90
2019-04-16T09:37:31.883Z,20.30
2019-04-16T09:38:31.858Z,25.70
2019-04-16T09:39:31.856Z,20.60
2019-04-16T09:40:31.856Z,22.80
2019-04-16T09:41:31.827Z,20.70
2019-04-16T09:42:31.827Z,20.00
2019-04-16T09:43:31.808Z,21.50
2019-04-16T09:44:35.245Z,24.20
2019-04-16T09:45:33.822Z,22.20
2019-04-16T09:46:50.587Z,22.20
2019-04-16T09:47:33.459Z,23.20
2019-04-16T09:48:34.755Z,22.70
2019-04-16T09:49:34.300Z,21.90
2019-04-16T09:50:32.764Z,23.60
2019-04-16T09:51:31.724Z,22.20
2019-04-16T09:52:31.709Z,22.80
2019-04-16T09:53:34.079Z,23.90
2019-04-16T09:54:31.700Z,22.50
2019-04-16T09:55:31.677Z,22.20
2019-04-16T09:56:31.687Z,24.10
2019-04-16T09:57:32.413Z,23.70
2019-04-16T09:58:31.644Z,20.50
2019-04-16T09:59:31.647Z,26.00
2019-04-16T10:00:31.625Z,24.20
2019-04-16T10:01:31.632Z,22.80
2019-04-16T10:02:31.603Z,20.30
2019-04-16T10:03:31.595Z,23.00
2019-04-16T10:04:31.577Z,22.40
2019-04-16T10:05:31.586Z,21.50
2019-04-16T10:06:31.582Z,22.90
2019-04-16T10:07:31.550Z,23.00
2019-04-16T10:08:31.552Z,22.10
2019-04-16T10:09:31.568Z,22.60
2019-04-16T10:10:39.200Z,22.40
2019-04-16T10:11:32.733Z,21.10
2019-04-16T10:12:31.523Z,24.40
2019-04-16T10:13:39.094Z,23.90
2019-04-16T10:14:31.517Z,25.00
2019-04-16T10:15:31.482Z,24.30
2019-04-16T10:16:39.229Z,24.10
2019-04-16T10:17:31.495Z,21.70
2019-04-16T10:18:34.631Z,23.60
2019-04-16T10:19:31.421Z,23.80
2019-04-16T10:20:31.536Z,21.40
2019-04-16T10:21:31.420Z,23.50
2019-04-16T10:22:31.423Z,22.70
2019-04-16T10:23:31.379Z,23.30
2019-04-16T10:24:31.367Z,23.80
2019-04-16T10:25:33.722Z,20.50
2019-04-16T10:26:31.373Z,21.50
2019-04-16T10:27:32.501Z,23.80
2019-04-16T10:28:33.941Z,24.60
2019-04-16T10:29:32.320Z,21.00
2019-04-16T10:30:31.362Z,25.70
2019-04-16T10:31:31.293Z,23.10
2019-04-16T10:32:31.312Z,22.80
2019-04-16T10:33:31.274Z,23.90
2019-04-16T10:34:31.273Z,19.20
2019-04-16T10:35:31.262Z,21.90
2019-04-16T10:36:31.277Z,25.40
2019-04-16T10:37:31.249Z,22.00
2019-04-16T10:38:31.238Z,20.60
2019-04-16T10:39:31.223Z,23.40
2019-04-16T10:40:31.219Z,20.60
2019-04-16T10:41:31.211Z,20.60
2019-04-16T10:42:31.198Z,23.50
2019-04-16T10:43:43.902Z,24.40
2019-04-16T10:44:32.355Z,23.50
2019-04-16T10:45:31.156Z,23.60
2019-04-16T10:46:31.220Z,23.70
2019-04-16T10:47:31.220Z,22.80
2019-04-16T10:48:31.141Z,23.80
2019-04-16T10:49:31.314Z,25.10
2019-04-16T10:50:31.256Z,20.70
2019-04-16T10:51:31.169Z,21.00
2019-04-16T10:52:31.675Z,21.60
2019-04-16T10:53:31.259Z,22.80
2019-04-16T10:54:33.687Z,21.40
2019-04-16T10:56:42.095Z,20.40
2019-04-16T10:57:50.774Z,21.60
2019-04-16T10:58:42.028Z,22.50
2019-04-16T10:59:49.617Z,20.50
2019-04-16T11:00:42.088Z,21.80
2019-04-16T11:02:51.744Z,22.20
2019-04-16T11:03:51.819Z,24.40
2019-04-16T11:04:51.784Z,23.00
2019-04-16T11:05:59.362Z,26.40
2019-04-16T11:06:51.734Z,24.50
2019-04-16T11:07:51.796Z,23.00
2019-04-16T11:08:51.659Z,25.80
2019-04-16T11:09:51.681Z,22.80
2019-04-16T11:10:51.639Z,22.90
2019-04-16T11:11:51.670Z,25.50
2019-04-16T11:12:51.658Z,26.30
2019-04-16T11:13:59.760Z,24.80
2019-04-16T11:14:52.608Z,21.30
2019-04-16T11:15:51.603Z,23.90
2019-04-16T11:16:51.576Z,22.70
2019-04-16T11:17:51.566Z,23.30
2019-04-16T11:18:54.849Z,21.00
2019-04-16T11:19:54.141Z,26.60
2019-04-16T11:20:51.562Z,24.90
2019-04-16T11:21:51.523Z,25.80
2019-04-16T11:22:51.530Z,24.40
2019-04-16T11:23:51.594Z,21.90
2019-04-16T11:24:51.784Z,24.00
2019-04-16T11:25:59.171Z,22.10
2019-04-16T11:26:51.545Z,21.30
2019-04-16T11:27:59.102Z,22.10
2019-04-16T11:28:51.556Z,21.70
2019-04-16T11:29:59.133Z,24.90
2019-04-16T11:30:51.438Z,25.20
2019-04-16T11:31:59.069Z,24.40
2019-04-16T11:32:53.314Z,27.50
2019-04-16T11:34:00.477Z,26.20
2019-04-16T11:34:51.498Z,26.90
2019-04-16T11:35:59.046Z,26.00
2019-04-16T11:36:51.443Z,25.10
2019-04-16T11:37:59.072Z,24.40
2019-04-16T11:38:58.966Z,27.70
2019-04-16T11:39:51.333Z,25.20
2019-04-16T11:40:51.333Z,24.80
2019-04-16T11:41:51.354Z,23.30
2019-04-16T11:42:51.336Z,24.40
2019-04-16T11:43:51.342Z,28.00
2019-04-16T11:44:51.303Z,28.40
2019-04-16T11:45:51.302Z,25.20
2019-04-16T11:46:58.850Z,25.80
2019-04-16T11:47:51.279Z,26.00
2019-04-16T11:48:58.832Z,25.40
2019-04-16T11:49:51.237Z,22.70
2019-04-16T11:50:58.980Z,25.10
2019-04-16T11:51:51.204Z,25.30
2019-04-16T11:52:51.369Z,25.90
2019-04-16T11:53:51.205Z,27.00
2019-04-16T11:54:51.186Z,23.30
2019-04-16T11:55:51.156Z,27.40
2019-04-16T11:56:51.878Z,28.20
2019-04-16T11:57:51.209Z,27.90
2019-04-16T11:58:51.160Z,26.70
2019-04-16T12:00:05.804Z,25.40
2019-04-16T12:00:52.156Z,26.50
2019-04-16T12:01:51.125Z,26.10
2019-04-16T12:02:51.090Z,25.80
2019-04-16T12:03:51.138Z,27.70
2019-04-16T12:04:55.016Z,25.80
2019-04-16T12:05:52.070Z,25.80
2019-04-16T12:06:51.056Z,27.10
2019-04-16T12:07:51.069Z,25.30
2019-04-16T12:08:51.060Z,25.00
2019-04-16T12:09:51.092Z,28.30
2019-04-16T12:10:58.581Z,24.90
2019-04-16T12:11:51.135Z,31.10
2019-04-16T12:12:51.035Z,26.70
2019-04-16T12:13:50.967Z,27.10
2019-04-16T12:14:51.036Z,26.40
2019-04-16T12:15:50.995Z,24.50
2019-04-16T12:16:58.566Z,25.60
2019-04-16T12:17:50.936Z,23.50
2019-04-16T12:18:50.948Z,20.60
2019-04-16T12:19:50.930Z,23.60
2019-04-16T12:20:50.967Z,21.80
2019-04-16T12:21:50.917Z,23.30
2019-04-16T12:22:50.903Z,21.10
2019-04-16T12:23:50.925Z,21.00
2019-04-16T12:24:50.980Z,22.40
2019-04-16T12:25:50.902Z,19.80
2019-04-16T12:26:50.943Z,20.10
2019-04-16T12:27:50.856Z,21.50
2019-04-16T12:28:50.818Z,23.30
2019-04-16T12:29:50.862Z,22.20
2019-04-16T12:30:50.831Z,23.90
2019-04-16T12:31:50.782Z,24.70
2019-04-16T12:32:50.764Z,20.90
2019-04-16T12:33:58.402Z,20.90
2019-04-16T12:34:51.295Z,21.50
2019-04-16T12:35:58.446Z,17.80
2019-04-16T12:36:50.765Z,20.20
2019-04-16T12:37:50.765Z,20.40
2019-04-16T12:38:50.702Z,19.60
2019-04-16T12:39:50.717Z,20.30
2019-04-16T12:40:50.791Z,22.20
2019-04-16T12:41:50.806Z,22.30
2019-04-16T12:42:50.688Z,21.30
2019-04-16T12:43:51.650Z,18.60
2019-04-16T12:44:50.722Z,22.70
2019-04-16T12:45:53.420Z,22.30
2019-04-16T12:46:50.671Z,18.30
2019-04-16T12:47:50.626Z,16.20
2019-04-16T12:48:50.642Z,17.20
2019-04-16T12:49:50.622Z,17.70
2019-04-16T12:50:50.621Z,16.90
2019-04-16T12:51:50.622Z,17.20
2019-04-16T12:52:54.392Z,18.50
2019-04-16T12:53:53.521Z,18.40
2019-04-16T12:54:50.531Z,17.90